Deer River, NY (13627)

9:36 AM EST on February 23, 2018 (GMT -0500)
MAR933 | | Change Station
Active Advisory: Winter Weather Advisory

Elev 1052 ft 43.93 °N, 75.66 °W | Updated 28 minutes ago

Overcast
Overcast
32.0 °F
Feels Like 25 °F
N
8.0
Wind Variable Wind from ESE
Gusts 13.0 mph

Today
High -- | Low -- °F
--% Chance of Precip.
Yesterday
High -- | Low -- °F
Precip. -- in
Pressure 30.43 in
Visibility 10.0 miles
Clouds Overcast 8000 ft
Windchill 25 °F
Dew Point 24 °F
Humidity 73%
Rainfall 0.01 in
Snow Depth Not available.
6:49 AM 5:42 PM
First Quarter, 53% visible
METAR KGTB 231356Z AUTO 14016G20KT 10SM OVC080 01/M05 A3040 RMK AO2 SLP305 T00071051
Pressure 30.43 in
Visibility 10.0 miles
Clouds Overcast 8000 ft
Windchill 25 °F
Dew Point 24 °F
Humidity 73%
Rainfall 0.01 in
Snow Depth Not available.
6:49 AM 5:42 PM
First Quarter, 53% visible
METAR KGTB 231356Z AUTO 14016G20KT 10SM OVC080 01/M05 A3040 RMK AO2 SLP305 T00071051

Get Your Daily Forecast Email!

Thanks for signing up!

Be on the lookout for a verification email in your inbox.

You'll start receiving severe weather alerts in your inbox..

×

10-Day Weather Forecast

Almanac

Astronomy

Feb. 23, 2018 Rise Set
Actual Time
Civil Twilight
Nautical Twilight
Astronomical Twilight
Moon
Length of Visible Light
Length of Day
Tomorrow will be .
, % of the Moon is Illuminated

Today's Extremes

State Highs State Lows

Community

WunderPhotos

Category 6

Welcome to Category 6. This is the collective home for Weather Underground's featured writeups by Dr. Jeff Masters (right), Bob Henson (left), Chris Burt, and other regular contributors.

Nearby

Air Quality

  Air Quality AQ Index Pollutant
Not available.

Snow Depth

Station Depth Elevation

Earthquake Activity

City Distance Mag. Time & Date
Minimum magnitude displayed is 2.5.

Coastal Water Temperatures

Place Temperature

Stations

Nearby Weather Stations

Station Location Temp. Windchill Dew Point Humidity Wind Precip. Elev Updated Type
                   

Watches & Warnings

Winter Weather Advisory
Issued: 3:11 AM EST Feb. 23, 2018 – National Weather Service

... Winter Weather Advisory in effect from 10 am this morning to
4 PM EST this afternoon...

* what... freezing rain expected. Total ice accumulations of a
few hundredths of an inch are expected.

* Where... Oswego and Lewis counties. Mainly across the Tug Hill.

* When... from 10 am this morning to 4 PM EST this afternoon.

* Additional details... the ice will result in very slippery
conditions on sidewalks, roads and bridges.

Precautionary/preparedness actions...

Periods of freezing rain will result in slick roads. Slow down
and use caution while driving.

Submit ice reports through our website or social media.



Smith